sensor_id;sensor_type;location;lat;lon;timestamp;P1;durP1;ratioP1;P2;durP2;ratioP2
74233;SDS011;62591;55.764;37.718;2022-11-11T00:00:59;36.97;;;18.98;;
74233;SDS011;62591;55.764;37.718;2022-11-11T00:03:46;36.60;;;18.63;;
74233;SDS011;62591;55.764;37.718;2022-11-11T00:06:33;32.42;;;17.63;;
74233;SDS011;62591;55.764;37.718;2022-11-11T00:09:20;34.70;;;18.05;;
74233;SDS011;62591;55.764;37.718;2022-11-11T00:12:07;34.78;;;19.15;;
74233;SDS011;62591;55.764;37.718;2022-11-11T00:14:54;35.28;;;19.35;;
74233;SDS011;62591;55.764;37.718;2022-11-11T00:17:43;34.08;;;18.02;;
74233;SDS011;62591;55.764;37.718;2022-11-11T00:20:46;36.50;;;17.98;;
74233;SDS011;62591;55.764;37.718;2022-11-11T00:23:51;37.90;;;19.20;;
74233;SDS011;62591;55.764;37.718;2022-11-11T00:26:56;30.13;;;17.13;;
74233;SDS011;62591;55.764;37.718;2022-11-11T00:29:45;33.05;;;17.92;;
74233;SDS011;62591;55.764;37.718;2022-11-11T00:32:33;31.42;;;18.50;;
74233;SDS011;62591;55.764;37.718;2022-11-11T00:35:21;32.83;;;17.38;;
74233;SDS011;62591;55.764;37.718;2022-11-11T00:38:34;29.77;;;17.10;;
74233;SDS011;62591;55.764;37.718;2022-11-11T00:41:34;31.75;;;18.02;;
74233;SDS011;62591;55.764;37.718;2022-11-11T00:44:21;32.15;;;17.02;;
74233;SDS011;62591;55.764;37.718;2022-11-11T00:47:08;33.33;;;16.70;;
74233;SDS011;62591;55.764;37.718;2022-11-11T00:50:14;34.20;;;17.33;;
74233;SDS011;62591;55.764;37.718;2022-11-11T00:53:22;31.25;;;17.15;;
74233;SDS011;62591;55.764;37.718;2022-11-11T00:56:12;31.80;;;17.75;;
74233;SDS011;62591;55.764;37.718;2022-11-11T00:58:59;30.75;;;17.00;;
74233;SDS011;62591;55.764;37.718;2022-11-11T01:01:46;30.63;;;17.88;;
74233;SDS011;62591;55.764;37.718;2022-11-11T01:04:34;30.33;;;16.88;;
74233;SDS011;62591;55.764;37.718;2022-11-11T01:07:20;27.52;;;15.90;;
74233;SDS011;62591;55.764;37.718;2022-11-11T01:10:09;28.58;;;16.45;;
74233;SDS011;62591;55.764;37.718;2022-11-11T01:12:57;30.10;;;16.30;;
74233;SDS011;62591;55.764;37.718;2022-11-11T01:15:58;27.55;;;16.85;;
74233;SDS011;62591;55.764;37.718;2022-11-11T01:18:46;29.30;;;14.95;;
74233;SDS011;62591;55.764;37.718;2022-11-11T01:21:34;34.13;;;16.42;;
74233;SDS011;62591;55.764;37.718;2022-11-11T01:24:22;27.67;;;13.73;;
74233;SDS011;62591;55.764;37.718;2022-11-11T01:27:11;29.27;;;16.00;;
74233;SDS011;62591;55.764;37.718;2022-11-11T01:29:58;29.17;;;15.60;;
74233;SDS011;62591;55.764;37.718;2022-11-11T01:32:45;31.23;;;16.08;;
74233;SDS011;62591;55.764;37.718;2022-11-11T01:35:36;27.33;;;15.27;;
74233;SDS011;62591;55.764;37.718;2022-11-11T01:38:23;30.15;;;15.70;;
74233;SDS011;62591;55.764;37.718;2022-11-11T01:41:12;25.38;;;15.07;;
74233;SDS011;62591;55.764;37.718;2022-11-11T01:44:42;27.38;;;14.90;;
74233;SDS011;62591;55.764;37.718;2022-11-11T01:47:32;25.40;;;15.07;;
74233;SDS011;62591;55.764;37.718;2022-11-11T01:50:54;25.38;;;14.93;;
74233;SDS011;62591;55.764;37.718;2022-11-11T01:53:42;24.65;;;14.32;;
74233;SDS011;62591;55.764;37.718;2022-11-11T01:56:31;24.20;;;13.80;;
74233;SDS011;62591;55.764;37.718;2022-11-11T01:59:19;24.50;;;14.32;;
74233;SDS011;62591;55.764;37.718;2022-11-11T02:02:10;26.63;;;14.93;;
74233;SDS011;62591;55.764;37.718;2022-11-11T02:05:05;23.75;;;14.05;;
74233;SDS011;62591;55.764;37.718;2022-11-11T02:08:14;23.75;;;13.50;;
74233;SDS011;62591;55.764;37.718;2022-11-11T02:11:17;22.55;;;14.05;;
74233;SDS011;62591;55.764;37.718;2022-11-11T02:14:27;22.27;;;12.50;;
74233;SDS011;62591;55.764;37.718;2022-11-11T02:17:26;24.60;;;13.05;;
74233;SDS011;62591;55.764;37.718;2022-11-11T02:20:16;20.05;;;12.02;;
74233;SDS011;62591;55.764;37.718;2022-11-11T02:23:07;18.13;;;11.35;;
74233;SDS011;62591;55.764;37.718;2022-11-11T02:26:00;18.73;;;10.80;;
74233;SDS011;62591;55.764;37.718;2022-11-11T02:28:50;18.20;;;11.05;;
74233;SDS011;62591;55.764;37.718;2022-11-11T02:31:40;16.80;;;10.98;;
74233;SDS011;62591;55.764;37.718;2022-11-11T02:34:28;19.40;;;11.23;;
74233;SDS011;62591;55.764;37.718;2022-11-11T02:37:17;17.60;;;10.50;;
74233;SDS011;62591;55.764;37.718;2022-11-11T02:40:08;18.98;;;10.98;;
74233;SDS011;62591;55.764;37.718;2022-11-11T02:42:59;15.23;;;9.68;;
74233;SDS011;62591;55.764;37.718;2022-11-11T02:45:46;15.18;;;9.88;;
74233;SDS011;62591;55.764;37.718;2022-11-11T02:48:34;17.45;;;10.05;;
74233;SDS011;62591;55.764;37.718;2022-11-11T02:51:21;16.45;;;9.80;;
74233;SDS011;62591;55.764;37.718;2022-11-11T02:54:07;52.92;;;41.65;;
74233;SDS011;62591;55.764;37.718;2022-11-11T02:56:54;17.45;;;11.30;;
74233;SDS011;62591;55.764;37.718;2022-11-11T02:59:55;31.50;;;22.08;;
74233;SDS011;62591;55.764;37.718;2022-11-11T03:02:45;14.63;;;9.45;;
74233;SDS011;62591;55.764;37.718;2022-11-11T03:05:32;14.07;;;8.55;;
74233;SDS011;62591;55.764;37.718;2022-11-11T03:08:19;14.13;;;8.45;;
74233;SDS011;62591;55.764;37.718;2022-11-11T03:11:07;13.15;;;8.80;;
74233;SDS011;62591;55.764;37.718;2022-11-11T03:13:53;14.23;;;8.52;;
74233;SDS011;62591;55.764;37.718;2022-11-11T03:16:42;13.45;;;7.97;;
74233;SDS011;62591;55.764;37.718;2022-11-11T03:19:47;11.48;;;8.07;;
74233;SDS011;62591;55.764;37.718;2022-11-11T03:22:34;12.15;;;7.82;;
74233;SDS011;62591;55.764;37.718;2022-11-11T03:25:39;12.70;;;7.65;;
74233;SDS011;62591;55.764;37.718;2022-11-11T03:28:28;10.43;;;7.32;;
74233;SDS011;62591;55.764;37.718;2022-11-11T03:31:15;12.23;;;6.65;;
74233;SDS011;62591;55.764;37.718;2022-11-11T03:34:04;12.25;;;7.25;;
74233;SDS011;62591;55.764;37.718;2022-11-11T03:37:07;12.65;;;7.53;;
74233;SDS011;62591;55.764;37.718;2022-11-11T03:40:12;11.88;;;6.40;;
74233;SDS011;62591;55.764;37.718;2022-11-11T03:42:59;12.00;;;7.18;;
74233;SDS011;62591;55.764;37.718;2022-11-11T03:45:49;8.77;;;5.78;;
74233;SDS011;62591;55.764;37.718;2022-11-11T03:48:37;10.38;;;6.35;;
74233;SDS011;62591;55.764;37.718;2022-11-11T03:51:25;9.55;;;6.68;;
74233;SDS011;62591;55.764;37.718;2022-11-11T03:54:14;11.00;;;6.50;;
74233;SDS011;62591;55.764;37.718;2022-11-11T03:57:01;9.60;;;5.43;;
74233;SDS011;62591;55.764;37.718;2022-11-11T04:00:05;9.40;;;6.00;;
74233;SDS011;62591;55.764;37.718;2022-11-11T04:03:02;9.35;;;5.72;;
74233;SDS011;62591;55.764;37.718;2022-11-11T04:06:09;10.25;;;6.30;;
74233;SDS011;62591;55.764;37.718;2022-11-11T04:09:16;16.70;;;10.95;;
74233;SDS011;62591;55.764;37.718;2022-11-11T04:12:21;9.88;;;6.90;;
74233;SDS011;62591;55.764;37.718;2022-11-11T04:15:08;9.38;;;6.18;;
74233;SDS011;62591;55.764;37.718;2022-11-11T04:18:12;10.18;;;6.43;;
74233;SDS011;62591;55.764;37.718;2022-11-11T04:20:59;9.80;;;5.80;;
74233;SDS011;62591;55.764;37.718;2022-11-11T04:24:04;9.88;;;6.03;;
74233;SDS011;62591;55.764;37.718;2022-11-11T04:27:14;9.15;;;5.55;;
74233;SDS011;62591;55.764;37.718;2022-11-11T04:30:01;9.05;;;6.28;;
74233;SDS011;62591;55.764;37.718;2022-11-11T04:32:48;10.77;;;6.05;;
74233;SDS011;62591;55.764;37.718;2022-11-11T04:35:35;8.50;;;5.90;;
74233;SDS011;62591;55.764;37.718;2022-11-11T04:38:22;11.60;;;6.55;;
74233;SDS011;62591;55.764;37.718;2022-11-11T04:41:26;8.73;;;5.88;;
74233;SDS011;62591;55.764;37.718;2022-11-11T04:44:35;9.80;;;6.47;;
74233;SDS011;62591;55.764;37.718;2022-11-11T04:47:51;11.55;;;7.15;;
74233;SDS011;62591;55.764;37.718;2022-11-11T04:50:39;10.75;;;6.88;;
74233;SDS011;62591;55.764;37.718;2022-11-11T04:53:27;11.98;;;6.82;;
74233;SDS011;62591;55.764;37.718;2022-11-11T04:56:14;12.60;;;8.63;;
74233;SDS011;62591;55.764;37.718;2022-11-11T04:59:19;13.07;;;7.80;;
74233;SDS011;62591;55.764;37.718;2022-11-11T05:02:07;11.45;;;7.22;;
74233;SDS011;62591;55.764;37.718;2022-11-11T05:05:12;11.80;;;7.43;;
74233;SDS011;62591;55.764;37.718;2022-11-11T05:07:59;10.98;;;7.10;;
74233;SDS011;62591;55.764;37.718;2022-11-11T05:11:04;10.43;;;6.72;;
74233;SDS011;62591;55.764;37.718;2022-11-11T05:13:52;10.70;;;6.95;;
74233;SDS011;62591;55.764;37.718;2022-11-11T05:16:57;9.80;;;6.78;;
74233;SDS011;62591;55.764;37.718;2022-11-11T05:20:04;10.05;;;6.75;;
74233;SDS011;62591;55.764;37.718;2022-11-11T05:23:08;9.05;;;6.30;;
74233;SDS011;62591;55.764;37.718;2022-11-11T05:25:55;9.48;;;6.35;;
74233;SDS011;62591;55.764;37.718;2022-11-11T05:28:41;9.30;;;6.68;;
74233;SDS011;62591;55.764;37.718;2022-11-11T05:31:28;9.18;;;6.13;;
74233;SDS011;62591;55.764;37.718;2022-11-11T05:34:16;11.30;;;6.57;;
74233;SDS011;62591;55.764;37.718;2022-11-11T05:37:04;10.80;;;6.72;;
74233;SDS011;62591;55.764;37.718;2022-11-11T05:39:51;11.38;;;6.88;;
74233;SDS011;62591;55.764;37.718;2022-11-11T05:42:41;8.55;;;6.35;;
74233;SDS011;62591;55.764;37.718;2022-11-11T05:45:35;9.05;;;6.22;;
74233;SDS011;62591;55.764;37.718;2022-11-11T05:48:22;10.65;;;6.20;;
74233;SDS011;62591;55.764;37.718;2022-11-11T05:51:09;8.10;;;5.63;;
74233;SDS011;62591;55.764;37.718;2022-11-11T05:54:14;10.00;;;6.32;;
74233;SDS011;62591;55.764;37.718;2022-11-11T05:57:01;9.57;;;5.05;;
74233;SDS011;62591;55.764;37.718;2022-11-11T05:59:48;8.77;;;5.85;;
74233;SDS011;62591;55.764;37.718;2022-11-11T06:02:35;9.55;;;6.05;;
74233;SDS011;62591;55.764;37.718;2022-11-11T06:05:23;10.02;;;6.70;;
74233;SDS011;62591;55.764;37.718;2022-11-11T06:08:11;10.88;;;6.32;;
74233;SDS011;62591;55.764;37.718;2022-11-11T06:10:59;9.70;;;6.45;;
74233;SDS011;62591;55.764;37.718;2022-11-11T06:13:46;8.30;;;6.13;;
74233;SDS011;62591;55.764;37.718;2022-11-11T06:16:34;10.13;;;6.55;;
74233;SDS011;62591;55.764;37.718;2022-11-11T06:19:21;10.32;;;6.80;;
74233;SDS011;62591;55.764;37.718;2022-11-11T06:22:09;10.15;;;6.15;;
74233;SDS011;62591;55.764;37.718;2022-11-11T06:24:56;10.52;;;6.45;;
74233;SDS011;62591;55.764;37.718;2022-11-11T06:27:58;7.00;;;5.60;;
74233;SDS011;62591;55.764;37.718;2022-11-11T06:30:45;9.15;;;6.25;;
74233;SDS011;62591;55.764;37.718;2022-11-11T06:33:35;8.95;;;5.80;;
74233;SDS011;62591;55.764;37.718;2022-11-11T06:36:23;10.38;;;6.10;;
74233;SDS011;62591;55.764;37.718;2022-11-11T06:39:11;8.00;;;5.53;;
74233;SDS011;62591;55.764;37.718;2022-11-11T06:41:58;9.25;;;5.60;;
74233;SDS011;62591;55.764;37.718;2022-11-11T06:44:48;13.15;;;7.38;;
74233;SDS011;62591;55.764;37.718;2022-11-11T06:47:35;8.82;;;5.00;;
74233;SDS011;62591;55.764;37.718;2022-11-11T06:50:22;7.57;;;5.15;;
74233;SDS011;62591;55.764;37.718;2022-11-11T06:53:10;8.27;;;5.57;;
74233;SDS011;62591;55.764;37.718;2022-11-11T06:55:58;7.75;;;5.10;;
74233;SDS011;62591;55.764;37.718;2022-11-11T06:58:45;10.45;;;5.40;;
74233;SDS011;62591;55.764;37.718;2022-11-11T07:01:34;7.60;;;4.88;;
74233;SDS011;62591;55.764;37.718;2022-11-11T07:04:20;8.00;;;5.10;;
74233;SDS011;62591;55.764;37.718;2022-11-11T07:07:07;8.43;;;5.68;;
74233;SDS011;62591;55.764;37.718;2022-11-11T07:09:54;7.00;;;5.03;;
74233;SDS011;62591;55.764;37.718;2022-11-11T07:12:42;7.45;;;5.25;;
74233;SDS011;62591;55.764;37.718;2022-11-11T07:15:30;10.02;;;5.45;;
74233;SDS011;62591;55.764;37.718;2022-11-11T07:18:18;7.43;;;5.03;;
74233;SDS011;62591;55.764;37.718;2022-11-11T07:21:06;7.55;;;4.85;;
74233;SDS011;62591;55.764;37.718;2022-11-11T07:23:53;10.13;;;5.70;;
74233;SDS011;62591;55.764;37.718;2022-11-11T07:26:40;7.65;;;4.95;;
74233;SDS011;62591;55.764;37.718;2022-11-11T07:29:27;8.70;;;4.70;;
74233;SDS011;62591;55.764;37.718;2022-11-11T07:32:16;7.75;;;4.80;;
74233;SDS011;62591;55.764;37.718;2022-11-11T07:35:06;7.57;;;4.90;;
74233;SDS011;62591;55.764;37.718;2022-11-11T07:37:54;8.07;;;5.20;;
74233;SDS011;62591;55.764;37.718;2022-11-11T07:40:41;6.95;;;4.57;;
74233;SDS011;62591;55.764;37.718;2022-11-11T07:43:28;7.28;;;4.78;;
74233;SDS011;62591;55.764;37.718;2022-11-11T07:46:15;6.97;;;4.88;;
74233;SDS011;62591;55.764;37.718;2022-11-11T07:49:02;10.18;;;5.95;;
74233;SDS011;62591;55.764;37.718;2022-11-11T07:51:51;11.15;;;5.78;;
74233;SDS011;62591;55.764;37.718;2022-11-11T07:54:38;9.55;;;5.45;;
74233;SDS011;62591;55.764;37.718;2022-11-11T07:57:25;9.70;;;5.60;;
74233;SDS011;62591;55.764;37.718;2022-11-11T08:00:12;8.77;;;4.95;;
74233;SDS011;62591;55.764;37.718;2022-11-11T08:03:00;8.43;;;5.57;;
74233;SDS011;62591;55.764;37.718;2022-11-11T08:08:44;7.18;;;4.75;;
74233;SDS011;62591;55.764;37.718;2022-11-11T08:11:31;10.60;;;5.40;;
74233;SDS011;62591;55.764;37.718;2022-11-11T08:14:45;9.48;;;6.00;;
74233;SDS011;62591;55.764;37.718;2022-11-11T08:17:35;10.32;;;5.53;;
74233;SDS011;62591;55.764;37.718;2022-11-11T08:20:23;10.73;;;6.22;;
74233;SDS011;62591;55.764;37.718;2022-11-11T08:23:10;11.90;;;7.28;;
74233;SDS011;62591;55.764;37.718;2022-11-11T08:26:20;10.27;;;5.80;;
74233;SDS011;62591;55.764;37.718;2022-11-11T08:29:13;10.70;;;5.90;;
74233;SDS011;62591;55.764;37.718;2022-11-11T08:32:00;11.20;;;6.57;;
74233;SDS011;62591;55.764;37.718;2022-11-11T08:34:47;10.55;;;5.55;;
74233;SDS011;62591;55.764;37.718;2022-11-11T08:37:34;10.68;;;5.93;;
74233;SDS011;62591;55.764;37.718;2022-11-11T08:40:21;9.07;;;5.72;;
74233;SDS011;62591;55.764;37.718;2022-11-11T08:43:10;11.93;;;5.55;;
74233;SDS011;62591;55.764;37.718;2022-11-11T08:45:57;10.18;;;5.40;;
74233;SDS011;62591;55.764;37.718;2022-11-11T08:48:45;9.77;;;6.03;;
74233;SDS011;62591;55.764;37.718;2022-11-11T08:51:32;11.20;;;5.38;;
74233;SDS011;62591;55.764;37.718;2022-11-11T08:54:27;10.32;;;6.15;;
74233;SDS011;62591;55.764;37.718;2022-11-11T08:57:14;10.48;;;6.55;;
74233;SDS011;62591;55.764;37.718;2022-11-11T09:00:03;13.30;;;6.57;;
74233;SDS011;62591;55.764;37.718;2022-11-11T09:02:52;10.43;;;5.90;;
74233;SDS011;62591;55.764;37.718;2022-11-11T09:05:39;11.32;;;5.97;;
74233;SDS011;62591;55.764;37.718;2022-11-11T09:08:27;10.63;;;6.10;;
74233;SDS011;62591;55.764;37.718;2022-11-11T09:11:13;10.90;;;5.97;;
74233;SDS011;62591;55.764;37.718;2022-11-11T09:14:00;11.10;;;5.68;;
74233;SDS011;62591;55.764;37.718;2022-11-11T09:16:49;8.88;;;5.20;;
74233;SDS011;62591;55.764;37.718;2022-11-11T09:19:36;10.50;;;6.10;;
74233;SDS011;62591;55.764;37.718;2022-11-11T09:22:23;8.55;;;5.90;;
74233;SDS011;62591;55.764;37.718;2022-11-11T09:25:10;9.63;;;5.90;;
74233;SDS011;62591;55.764;37.718;2022-11-11T09:27:58;11.32;;;5.80;;
74233;SDS011;62591;55.764;37.718;2022-11-11T09:30:47;10.88;;;5.75;;
74233;SDS011;62591;55.764;37.718;2022-11-11T09:33:36;9.00;;;5.97;;
74233;SDS011;62591;55.764;37.718;2022-11-11T09:36:23;8.23;;;5.40;;
74233;SDS011;62591;55.764;37.718;2022-11-11T09:39:10;10.07;;;6.32;;
74233;SDS011;62591;55.764;37.718;2022-11-11T09:41:58;9.63;;;5.97;;
74233;SDS011;62591;55.764;37.718;2022-11-11T09:45:05;8.77;;;5.45;;
74233;SDS011;62591;55.764;37.718;2022-11-11T09:48:06;10.65;;;6.07;;
74233;SDS011;62591;55.764;37.718;2022-11-11T09:51:08;8.45;;;5.50;;
74233;SDS011;62591;55.764;37.718;2022-11-11T09:54:04;10.63;;;5.57;;
74233;SDS011;62591;55.764;37.718;2022-11-11T09:57:07;7.00;;;4.57;;
74233;SDS011;62591;55.764;37.718;2022-11-11T10:00:02;7.47;;;4.85;;
74233;SDS011;62591;55.764;37.718;2022-11-11T10:02:57;8.45;;;4.57;;
74233;SDS011;62591;55.764;37.718;2022-11-11T10:05:54;7.82;;;4.90;;
74233;SDS011;62591;55.764;37.718;2022-11-11T10:08:48;9.75;;;4.85;;
74233;SDS011;62591;55.764;37.718;2022-11-11T10:11:48;6.95;;;4.32;;
74233;SDS011;62591;55.764;37.718;2022-11-11T10:14:44;9.43;;;4.97;;
74233;SDS011;62591;55.764;37.718;2022-11-11T10:17:36;8.60;;;5.82;;
74233;SDS011;62591;55.764;37.718;2022-11-11T10:20:31;11.18;;;6.55;;
74233;SDS011;62591;55.764;37.718;2022-11-11T10:23:24;9.57;;;5.20;;
74233;SDS011;62591;55.764;37.718;2022-11-11T10:26:17;8.68;;;4.85;;
74233;SDS011;62591;55.764;37.718;2022-11-11T10:29:08;8.82;;;5.00;;
74233;SDS011;62591;55.764;37.718;2022-11-11T10:32:01;11.88;;;6.60;;
74233;SDS011;62591;55.764;37.718;2022-11-11T10:34:53;9.20;;;4.72;;
74233;SDS011;62591;55.764;37.718;2022-11-11T10:37:46;9.05;;;4.80;;
74233;SDS011;62591;55.764;37.718;2022-11-11T10:40:45;8.27;;;4.65;;
74233;SDS011;62591;55.764;37.718;2022-11-11T10:43:36;7.15;;;4.30;;
74233;SDS011;62591;55.764;37.718;2022-11-11T10:46:23;8.80;;;5.30;;
74233;SDS011;62591;55.764;37.718;2022-11-11T10:49:15;8.30;;;4.63;;
74233;SDS011;62591;55.764;37.718;2022-11-11T10:52:06;6.72;;;4.28;;
74233;SDS011;62591;55.764;37.718;2022-11-11T10:54:58;6.80;;;4.72;;
74233;SDS011;62591;55.764;37.718;2022-11-11T11:00:40;11.20;;;7.07;;
74233;SDS011;62591;55.764;37.718;2022-11-11T11:03:31;12.40;;;5.95;;
74233;SDS011;62591;55.764;37.718;2022-11-11T11:06:23;9.00;;;4.72;;
74233;SDS011;62591;55.764;37.718;2022-11-11T11:09:18;7.47;;;4.78;;
74233;SDS011;62591;55.764;37.718;2022-11-11T11:15:02;6.43;;;4.68;;
74233;SDS011;62591;55.764;37.718;2022-11-11T11:17:56;6.95;;;4.72;;
74233;SDS011;62591;55.764;37.718;2022-11-11T11:20:54;6.97;;;4.63;;
74233;SDS011;62591;55.764;37.718;2022-11-11T11:23:42;7.75;;;4.40;;
74233;SDS011;62591;55.764;37.718;2022-11-11T11:26:41;7.40;;;4.82;;
74233;SDS011;62591;55.764;37.718;2022-11-11T11:29:30;9.45;;;4.85;;
74233;SDS011;62591;55.764;37.718;2022-11-11T11:32:19;7.60;;;4.40;;
74233;SDS011;62591;55.764;37.718;2022-11-11T11:35:28;7.43;;;4.88;;
74233;SDS011;62591;55.764;37.718;2022-11-11T11:38:19;12.98;;;7.68;;
74233;SDS011;62591;55.764;37.718;2022-11-11T11:41:06;13.02;;;6.90;;
74233;SDS011;62591;55.764;37.718;2022-11-11T11:43:53;9.55;;;5.00;;
74233;SDS011;62591;55.764;37.718;2022-11-11T11:46:41;9.65;;;5.30;;
74233;SDS011;62591;55.764;37.718;2022-11-11T11:49:38;8.00;;;5.10;;
74233;SDS011;62591;55.764;37.718;2022-11-11T11:52:36;7.90;;;5.20;;
74233;SDS011;62591;55.764;37.718;2022-11-11T11:55:36;9.52;;;5.10;;
74233;SDS011;62591;55.764;37.718;2022-11-11T11:58:31;10.07;;;5.43;;
74233;SDS011;62591;55.764;37.718;2022-11-11T12:01:29;9.57;;;5.10;;
74233;SDS011;62591;55.764;37.718;2022-11-11T12:04:28;7.82;;;5.25;;
74233;SDS011;62591;55.764;37.718;2022-11-11T12:07:44;7.75;;;5.15;;
74233;SDS011;62591;55.764;37.718;2022-11-11T12:10:43;8.82;;;4.93;;
74233;SDS011;62591;55.764;37.718;2022-11-11T12:13:38;7.97;;;5.35;;
74233;SDS011;62591;55.764;37.718;2022-11-11T12:16:34;9.68;;;5.70;;
74233;SDS011;62591;55.764;37.718;2022-11-11T12:19:32;8.25;;;4.57;;
74233;SDS011;62591;55.764;37.718;2022-11-11T12:22:30;8.48;;;5.40;;
74233;SDS011;62591;55.764;37.718;2022-11-11T12:25:36;9.70;;;5.60;;
74233;SDS011;62591;55.764;37.718;2022-11-11T12:28:37;12.57;;;5.20;;
74233;SDS011;62591;55.764;37.718;2022-11-11T12:31:39;7.75;;;4.90;;
74233;SDS011;62591;55.764;37.718;2022-11-11T12:34:42;8.95;;;5.32;;
74233;SDS011;62591;55.764;37.718;2022-11-11T12:37:48;10.70;;;5.00;;
74233;SDS011;62591;55.764;37.718;2022-11-11T12:40:50;14.43;;;7.35;;
74233;SDS011;62591;55.764;37.718;2022-11-11T12:43:50;8.90;;;5.53;;
74233;SDS011;62591;55.764;37.718;2022-11-11T12:46:50;11.15;;;5.53;;
74233;SDS011;62591;55.764;37.718;2022-11-11T12:49:51;9.38;;;5.60;;
74233;SDS011;62591;55.764;37.718;2022-11-11T12:52:45;9.07;;;5.38;;
74233;SDS011;62591;55.764;37.718;2022-11-11T12:55:48;8.88;;;4.93;;
74233;SDS011;62591;55.764;37.718;2022-11-11T12:58:45;7.47;;;4.30;;
74233;SDS011;62591;55.764;37.718;2022-11-11T13:01:45;9.45;;;5.63;;
74233;SDS011;62591;55.764;37.718;2022-11-11T13:04:44;10.60;;;5.00;;
74233;SDS011;62591;55.764;37.718;2022-11-11T13:07:57;7.20;;;4.90;;
74233;SDS011;62591;55.764;37.718;2022-11-11T13:11:06;7.75;;;4.63;;
74233;SDS011;62591;55.764;37.718;2022-11-11T13:14:04;8.48;;;4.93;;
74233;SDS011;62591;55.764;37.718;2022-11-11T13:17:07;8.73;;;5.15;;
74233;SDS011;62591;55.764;37.718;2022-11-11T13:19:57;11.10;;;5.07;;
74233;SDS011;62591;55.764;37.718;2022-11-11T13:22:49;8.68;;;4.88;;
74233;SDS011;62591;55.764;37.718;2022-11-11T13:25:37;9.65;;;5.18;;
74233;SDS011;62591;55.764;37.718;2022-11-11T13:28:39;8.10;;;4.10;;
74233;SDS011;62591;55.764;37.718;2022-11-11T13:31:30;7.35;;;4.13;;
74233;SDS011;62591;55.764;37.718;2022-11-11T13:34:22;7.70;;;4.43;;
74233;SDS011;62591;55.764;37.718;2022-11-11T13:37:17;10.95;;;4.80;;
74233;SDS011;62591;55.764;37.718;2022-11-11T13:40:08;7.95;;;4.13;;
74233;SDS011;62591;55.764;37.718;2022-11-11T13:43:17;6.15;;;4.40;;
74233;SDS011;62591;55.764;37.718;2022-11-11T13:49:31;8.52;;;3.50;;
74233;SDS011;62591;55.764;37.718;2022-11-11T13:52:22;8.52;;;4.00;;
74233;SDS011;62591;55.764;37.718;2022-11-11T13:55:21;5.95;;;4.00;;
74233;SDS011;62591;55.764;37.718;2022-11-11T13:58:20;7.13;;;3.97;;
74233;SDS011;62591;55.764;37.718;2022-11-11T14:01:10;5.32;;;3.55;;
74233;SDS011;62591;55.764;37.718;2022-11-11T14:04:03;5.72;;;3.20;;
74233;SDS011;62591;55.764;37.718;2022-11-11T14:06:54;6.85;;;3.95;;
74233;SDS011;62591;55.764;37.718;2022-11-11T14:09:59;10.30;;;3.80;;
74233;SDS011;62591;55.764;37.718;2022-11-11T14:12:48;6.15;;;3.80;;
74233;SDS011;62591;55.764;37.718;2022-11-11T14:15:40;6.70;;;4.03;;
74233;SDS011;62591;55.764;37.718;2022-11-11T14:18:33;8.32;;;4.75;;
74233;SDS011;62591;55.764;37.718;2022-11-11T14:24:43;9.15;;;4.53;;
74233;SDS011;62591;55.764;37.718;2022-11-11T14:27:31;7.70;;;4.05;;
74233;SDS011;62591;55.764;37.718;2022-11-11T14:33:40;6.07;;;4.13;;
74233;SDS011;62591;55.764;37.718;2022-11-11T14:36:37;11.48;;;4.55;;
74233;SDS011;62591;55.764;37.718;2022-11-11T14:39:31;6.05;;;4.07;;
74233;SDS011;62591;55.764;37.718;2022-11-11T14:51:54;6.78;;;4.07;;
74233;SDS011;62591;55.764;37.718;2022-11-11T14:57:45;8.25;;;4.00;;
74233;SDS011;62591;55.764;37.718;2022-11-11T15:00:41;8.30;;;4.60;;
74233;SDS011;62591;55.764;37.718;2022-11-11T15:03:32;9.27;;;3.47;;
74233;SDS011;62591;55.764;37.718;2022-11-11T15:06:25;7.15;;;3.33;;
74233;SDS011;62591;55.764;37.718;2022-11-11T15:09:27;8.45;;;3.30;;
74233;SDS011;62591;55.764;37.718;2022-11-11T15:12:33;4.40;;;3.08;;
74233;SDS011;62591;55.764;37.718;2022-11-11T15:15:30;6.47;;;3.55;;
74233;SDS011;62591;55.764;37.718;2022-11-11T15:18:40;6.10;;;3.83;;
74233;SDS011;62591;55.764;37.718;2022-11-11T15:21:39;6.10;;;4.13;;
74233;SDS011;62591;55.764;37.718;2022-11-11T15:24:34;11.10;;;5.10;;
74233;SDS011;62591;55.764;37.718;2022-11-11T15:27:35;7.07;;;3.88;;
74233;SDS011;62591;55.764;37.718;2022-11-11T15:30:39;6.40;;;3.63;;
74233;SDS011;62591;55.764;37.718;2022-11-11T15:33:45;4.82;;;3.25;;
74233;SDS011;62591;55.764;37.718;2022-11-11T15:36:44;5.93;;;3.60;;
74233;SDS011;62591;55.764;37.718;2022-11-11T15:39:38;5.65;;;2.72;;
74233;SDS011;62591;55.764;37.718;2022-11-11T15:42:30;7.38;;;3.00;;
74233;SDS011;62591;55.764;37.718;2022-11-11T15:45:24;4.40;;;2.92;;
74233;SDS011;62591;55.764;37.718;2022-11-11T15:48:18;4.63;;;2.50;;
74233;SDS011;62591;55.764;37.718;2022-11-11T15:51:21;4.03;;;2.78;;
74233;SDS011;62591;55.764;37.718;2022-11-11T15:54:17;5.63;;;2.80;;
74233;SDS011;62591;55.764;37.718;2022-11-11T15:57:26;3.88;;;2.72;;
74233;SDS011;62591;55.764;37.718;2022-11-11T16:00:24;6.18;;;3.17;;
74233;SDS011;62591;55.764;37.718;2022-11-11T16:03:16;7.03;;;3.60;;
74233;SDS011;62591;55.764;37.718;2022-11-11T16:06:09;8.25;;;3.25;;
74233;SDS011;62591;55.764;37.718;2022-11-11T16:09:00;5.72;;;3.67;;
74233;SDS011;62591;55.764;37.718;2022-11-11T16:11:49;7.65;;;3.50;;
74233;SDS011;62591;55.764;37.718;2022-11-11T16:14:38;7.03;;;3.70;;
74233;SDS011;62591;55.764;37.718;2022-11-11T16:17:34;5.38;;;3.33;;
74233;SDS011;62591;55.764;37.718;2022-11-11T16:20:27;6.32;;;3.53;;
74233;SDS011;62591;55.764;37.718;2022-11-11T16:23:20;6.35;;;3.15;;
74233;SDS011;62591;55.764;37.718;2022-11-11T16:26:08;6.75;;;2.80;;
74233;SDS011;62591;55.764;37.718;2022-11-11T16:28:56;7.45;;;3.58;;
74233;SDS011;62591;55.764;37.718;2022-11-11T16:31:44;5.93;;;3.05;;
74233;SDS011;62591;55.764;37.718;2022-11-11T16:34:37;5.80;;;3.58;;
74233;SDS011;62591;55.764;37.718;2022-11-11T16:37:30;5.60;;;3.30;;
74233;SDS011;62591;55.764;37.718;2022-11-11T16:40:39;6.20;;;3.60;;
74233;SDS011;62591;55.764;37.718;2022-11-11T16:43:29;7.00;;;3.55;;
74233;SDS011;62591;55.764;37.718;2022-11-11T16:49:26;5.45;;;3.28;;
74233;SDS011;62591;55.764;37.718;2022-11-11T16:52:18;10.70;;;3.47;;
74233;SDS011;62591;55.764;37.718;2022-11-11T16:55:09;4.97;;;3.33;;
74233;SDS011;62591;55.764;37.718;2022-11-11T16:58:08;5.95;;;3.38;;
74233;SDS011;62591;55.764;37.718;2022-11-11T17:00:58;5.85;;;3.35;;
74233;SDS011;62591;55.764;37.718;2022-11-11T17:03:51;6.68;;;3.05;;
74233;SDS011;62591;55.764;37.718;2022-11-11T17:06:50;6.70;;;2.90;;
74233;SDS011;62591;55.764;37.718;2022-11-11T17:09:42;8.27;;;3.20;;
74233;SDS011;62591;55.764;37.718;2022-11-11T17:12:30;7.43;;;3.50;;
74233;SDS011;62591;55.764;37.718;2022-11-11T17:15:19;5.65;;;3.20;;
74233;SDS011;62591;55.764;37.718;2022-11-11T17:18:07;8.80;;;3.20;;
74233;SDS011;62591;55.764;37.718;2022-11-11T17:20:54;9.38;;;3.30;;
74233;SDS011;62591;55.764;37.718;2022-11-11T17:23:42;5.75;;;3.10;;
74233;SDS011;62591;55.764;37.718;2022-11-11T17:26:31;8.05;;;3.72;;
74233;SDS011;62591;55.764;37.718;2022-11-11T17:29:18;4.85;;;3.08;;
74233;SDS011;62591;55.764;37.718;2022-11-11T17:32:05;5.32;;;3.53;;